Xunlong5 — BYGW — position and weather

sailwx.info

Track history (hours):
 
Tides and Currents Weather Stations Pressure Air Temp Water Temp Dewpoint Dewpoint Depression Visibility Wind Speed Wind Dir Waves Ship Positions

Xunlong5

Last reported at 2015-Mar-06 11:24 UTC. Time now 2015-Mar-06 20:05 UTC.
Position N 22°16' E 113°39'.

Length 34 m; draft 1.4 m.

Type: High speed craft. MMSI: 413471870.

Date/timePositionNaut miles runAvg speedWind from/ knotsBaromVisibWave heightAir tempDewpointWater temp
2015-Mar-06 11:24N 22°16' E 113°39'7 7.5
2015-Mar-06 10:29N 22°10' E 113°35'2 0.7
2015-Mar-06 07:20N 22°12' E 113°34'0 0.0
2015-Mar-06 04:18N 22°12' E 113°34'6 2.6
2015-Mar-06 02:05N 22°15' E 113°39'6 8.2
2015-Mar-06 01:22N 22°12' E 113°34'6 0.4
2015-Mar-05 11:29N 22°15' E 113°39'6 6.5
2015-Mar-05 10:33N 22°10' E 113°35'6 2.8
2015-Mar-05 08:21N 22°15' E 113°39'4 5.4
2015-Mar-05 07:34N 22°11' E 113°37'4 2.0
2015-Mar-05 05:24N 22°15' E 113°39'6 6.8
2015-Mar-05 04:32N 22°11' E 113°34'2 0.7
2015-Mar-05 01:30N 22°11' E 113°36'5 0.4
2015-Mar-04 11:28N 22°15' E 113°39'6 6.2
2015-Mar-04 10:25N 22°10' E 113°35'2 0.7
2015-Mar-04 07:14N 22°12' E 113°34'0 0.0
2015-Mar-04 04:24N 22°12' E 113°34'6 2.5
2015-Mar-04 02:05N 22°15' E 113°39'6 8.2
2015-Mar-04 01:22N 22°12' E 113°34'2023.8
2015-Mar-04 00:33N 22°29' E 113°44'14 1.1
2015-Mar-03 11:25N 22°15' E 113°39'6 7.1
2015-Mar-03 10:32N 22°10' E 113°35'2222.6
2015-Mar-03 09:33N 22°30' E 113°45'21 9.5
2015-Mar-03 07:19N 22°12' E 113°34'2123.9
2015-Mar-03 06:27N 22°29' E 113°45'1611.7
2015-Mar-03 05:06N 22°15' E 113°39'6 8.5
2015-Mar-03 04:26N 22°12' E 113°34'2122.6
2015-Mar-03 03:30N 22°30' E 113°45'1612.2
2015-Mar-03 02:12N 22°15' E 113°39'6 8.7
2015-Mar-03 01:31N 22°12' E 113°34'2121.4
2015-Mar-03 00:33N 22°30' E 113°45'20 1.4
2015-Mar-02 10:23N 22°11' E 113°38'4 2.0
2015-Mar-02 08:15N 22°15' E 113°39'6 8.4
2015-Mar-02 07:33N 22°12' E 113°34'2612.7
2015-Mar-02 05:32N 22°34' E 113°49'7 7.5
2015-Mar-02 04:32N 22°29' E 113°55'0 0.0
2015-Mar-02 03:32N 22°29' E 113°55'0 0.0
2015-Mar-02 02:29N 22°29' E 113°55'0 0.0
2015-Mar-02 01:32N 22°29' E 113°55'0 0.0
2015-Mar-02 00:32N 22°29' E 113°55'0 0.0
2015-Mar-01 23:32N 22°29' E 113°55'0 0.0
2015-Mar-01 22:32N 22°29' E 113°55'0 0.0
2015-Mar-01 21:32N 22°29' E 113°55'0 0.0
2015-Mar-01 20:32N 22°29' E 113°55'0 0.0
2015-Mar-01 13:32N 22°29' E 113°55'0 0.0
2015-Mar-01 12:32N 22°29' E 113°55'0 0.0
2015-Mar-01 11:32N 22°29' E 113°55'0 0.0
2015-Mar-01 10:32N 22°29' E 113°55'0 0.0
2015-Mar-01 09:32N 22°29' E 113°55'0 0.0
2015-Mar-01 08:32N 22°29' E 113°55'0 0.0
2015-Mar-01 07:32N 22°29' E 113°55'0 0.0
2015-Mar-01 06:32N 22°29' E 113°55'0 0.0
2015-Mar-01 05:32N 22°29' E 113°55'0 0.0
2015-Mar-01 04:32N 22°29' E 113°55'0 0.0
2015-Mar-01 03:32N 22°29' E 113°55'0 0.0
2015-Mar-01 02:32N 22°29' E 113°55'0 0.0
2015-Mar-01 01:32N 22°29' E 113°55'0 0.0
2015-Mar-01 00:32N 22°29' E 113°55'0 0.0
2015-Feb-28 23:32N 22°29' E 113°55'0 0.0
2015-Feb-28 22:32N 22°29' E 113°55'0 0.0
2015-Feb-28 21:32N 22°29' E 113°55'0 0.0
2015-Feb-28 20:32N 22°29' E 113°55'0 0.0
2015-Feb-28 19:32N 22°29' E 113°55'0 0.0
2015-Feb-28 18:32N 22°29' E 113°55'0 0.0
2015-Feb-28 17:26N 22°29' E 113°55'0 0.0
2015-Feb-28 16:32N 22°29' E 113°55'0 0.0
2015-Feb-28 15:32N 22°29' E 113°55'0 0.0
2015-Feb-28 14:32N 22°29' E 113°55'1210.0
2015-Feb-28 13:23N 22°19' E 113°48'1517.7
2015-Feb-28 12:32N 22°10' E 113°35'7 2.7
2015-Feb-28 10:06N 22°15' E 113°39'6 9.7
2015-Feb-28 09:30N 22°12' E 113°34'2222.9
2015-Feb-28 08:33N 22°30' E 113°46'1612.0
2015-Feb-28 07:12N 22°15' E 113°39'6 8.0
2015-Feb-28 06:28N 22°12' E 113°34'2122.7
2015-Feb-28 05:33N 22°30' E 113°45'2211.2
2015-Feb-28 03:33N 22°10' E 113°35'1615.9
2015-Feb-28 02:33N 22°24' E 113°43'2 1.7
2015-Feb-28 01:07N 22°26' E 113°45'1424.8
2015-Feb-28 00:33N 22°12' E 113°40'2 0.2
2015-Feb-27 12:33N 22°11' E 113°38'4 2.0
2015-Feb-27 10:19N 22°15' E 113°39'6 7.1
2015-Feb-27 09:31N 22°11' E 113°36'2323.8
2015-Feb-27 08:33N 22°32' E 113°46'9 8.9
2015-Feb-27 07:31N 22°23' E 113°42'1412.5
2015-Feb-27 06:25N 22°12' E 113°34'1719.8
2015-Feb-27 05:32N 22°26' E 113°44'19 8.5
2015-Feb-27 03:21N 22°10' E 113°35'1620.6
2015-Feb-27 02:33N 22°24' E 113°43'13 6.5
2015-Feb-27 00:33N 22°12' E 113°39'4 0.3
2015-Feb-26 12:21N 22°10' E 113°35'2 0.6
2015-Feb-26 09:22N 22°12' E 113°34'1821.5
2015-Feb-26 08:33N 22°27' E 113°44'18 8.0
2015-Feb-26 06:20N 22°12' E 113°34'1620.7
2015-Feb-26 05:33N 22°25' E 113°43'17 7.8
2015-Feb-26 03:21N 22°10' E 113°35'1923.9
2015-Feb-26 02:33N 22°27' E 113°44'18 8.8
2015-Feb-26 00:27N 22°10' E 113°37'2 2.4
2015-Feb-25 23:29N 22°10' E 113°35'0 0.0
2015-Feb-25 22:33N 22°10' E 113°35'0 0.0
2015-Feb-25 21:15N 22°10' E 113°35'0 0.0
2015-Feb-25 20:33N 22°10' E 113°35'0 0.0
2015-Feb-25 19:25N 22°10' E 113°35'0 0.0
2015-Feb-25 15:04N 22°10' E 113°35'0 0.0
2015-Feb-25 14:05N 22°10' E 113°35'0 0.0
2015-Feb-25 13:10N 22°10' E 113°35'0 0.1
2015-Feb-25 12:28N 22°10' E 113°35'6 2.7
2015-Feb-25 10:04N 22°15' E 113°39'6 7.6
2015-Feb-25 09:18N 22°12' E 113°34'0 0.0
2015-Feb-25 06:18N 22°12' E 113°34'2 0.7
2015-Feb-25 03:19N 22°10' E 113°35'2 0.7
2015-Feb-25 00:26N 22°10' E 113°37'2 0.6
2015-Feb-24 21:15N 22°10' E 113°35'0 0.0
2015-Feb-24 20:14N 22°10' E 113°35'0 0.0
2015-Feb-24 19:30N 22°10' E 113°35'0 0.0
2015-Feb-24 14:31N 22°10' E 113°35'0 0.0
2015-Feb-24 13:32N 22°10' E 113°35'0 0.5
2015-Feb-24 12:33N 22°10' E 113°35'  
Track history (hours):
 
Tides and Currents Weather Stations Pressure Air Temp Water Temp Dewpoint Dewpoint Depression Visibility Wind Speed Wind Dir Waves Ship Positions

Xunlong5

Last reported at 2015-Mar-06 11:24 UTC. Time now 2015-Mar-06 20:05 UTC.
Position N 22°16' E 113°39'.

Length 34 m; draft 1.4 m.

Type: High speed craft. MMSI: 413471870.

Date/timePositionNaut miles runAvg speedWind from/ knotsBaromVisibWave heightAir tempDewpointWater temp
2015-Mar-06 11:24N 22°16' E 113°39'7 7.5
2015-Mar-06 10:29N 22°10' E 113°35'2 0.7
2015-Mar-06 07:20N 22°12' E 113°34'0 0.0
2015-Mar-06 04:18N 22°12' E 113°34'6 2.6
2015-Mar-06 02:05N 22°15' E 113°39'6 8.2
2015-Mar-06 01:22N 22°12' E 113°34'6 0.4
2015-Mar-05 11:29N 22°15' E 113°39'6 6.5
2015-Mar-05 10:33N 22°10' E 113°35'6 2.8
2015-Mar-05 08:21N 22°15' E 113°39'4 5.4
2015-Mar-05 07:34N 22°11' E 113°37'4 2.0
2015-Mar-05 05:24N 22°15' E 113°39'6 6.8
2015-Mar-05 04:32N 22°11' E 113°34'2 0.7
2015-Mar-05 01:30N 22°11' E 113°36'5 0.4
2015-Mar-04 11:28N 22°15' E 113°39'6 6.2
2015-Mar-04 10:25N 22°10' E 113°35'2 0.7
2015-Mar-04 07:14N 22°12' E 113°34'0 0.0
2015-Mar-04 04:24N 22°12' E 113°34'6 2.5
2015-Mar-04 02:05N 22°15' E 113°39'6 8.2
2015-Mar-04 01:22N 22°12' E 113°34'2023.8
2015-Mar-04 00:33N 22°29' E 113°44'14 1.1
2015-Mar-03 11:25N 22°15' E 113°39'6 7.1
2015-Mar-03 10:32N 22°10' E 113°35'2222.6
2015-Mar-03 09:33N 22°30' E 113°45'21 9.5
2015-Mar-03 07:19N 22°12' E 113°34'2123.9
2015-Mar-03 06:27N 22°29' E 113°45'1611.7
2015-Mar-03 05:06N 22°15' E 113°39'6 8.5
2015-Mar-03 04:26N 22°12' E 113°34'2122.6
2015-Mar-03 03:30N 22°30' E 113°45'1612.2
2015-Mar-03 02:12N 22°15' E 113°39'6 8.7
2015-Mar-03 01:31N 22°12' E 113°34'2121.4
2015-Mar-03 00:33N 22°30' E 113°45'20 1.4
2015-Mar-02 10:23N 22°11' E 113°38'4 2.0
2015-Mar-02 08:15N 22°15' E 113°39'6 8.4
2015-Mar-02 07:33N 22°12' E 113°34'2612.7
2015-Mar-02 05:32N 22°34' E 113°49'7 7.5
2015-Mar-02 04:32N 22°29' E 113°55'0 0.0
2015-Mar-02 03:32N 22°29' E 113°55'0 0.0
2015-Mar-02 02:29N 22°29' E 113°55'0 0.0
2015-Mar-02 01:32N 22°29' E 113°55'0 0.0
2015-Mar-02 00:32N 22°29' E 113°55'0 0.0
2015-Mar-01 23:32N 22°29' E 113°55'0 0.0
2015-Mar-01 22:32N 22°29' E 113°55'0 0.0
2015-Mar-01 21:32N 22°29' E 113°55'0 0.0
2015-Mar-01 20:32N 22°29' E 113°55'0 0.0
2015-Mar-01 13:32N 22°29' E 113°55'0 0.0
2015-Mar-01 12:32N 22°29' E 113°55'0 0.0
2015-Mar-01 11:32N 22°29' E 113°55'0 0.0
2015-Mar-01 10:32N 22°29' E 113°55'0 0.0
2015-Mar-01 09:32N 22°29' E 113°55'0 0.0
2015-Mar-01 08:32N 22°29' E 113°55'0 0.0
2015-Mar-01 07:32N 22°29' E 113°55'0 0.0
2015-Mar-01 06:32N 22°29' E 113°55'0 0.0
2015-Mar-01 05:32N 22°29' E 113°55'0 0.0
2015-Mar-01 04:32N 22°29' E 113°55'0 0.0
2015-Mar-01 03:32N 22°29' E 113°55'0 0.0
2015-Mar-01 02:32N 22°29' E 113°55'0 0.0
2015-Mar-01 01:32N 22°29' E 113°55'0 0.0
2015-Mar-01 00:32N 22°29' E 113°55'0 0.0
2015-Feb-28 23:32N 22°29' E 113°55'0 0.0
2015-Feb-28 22:32N 22°29' E 113°55'0 0.0
2015-Feb-28 21:32N 22°29' E 113°55'0 0.0
2015-Feb-28 20:32N 22°29' E 113°55'0 0.0
2015-Feb-28 19:32N 22°29' E 113°55'0 0.0
2015-Feb-28 18:32N 22°29' E 113°55'0 0.0
2015-Feb-28 17:26N 22°29' E 113°55'0 0.0
2015-Feb-28 16:32N 22°29' E 113°55'0 0.0
2015-Feb-28 15:32N 22°29' E 113°55'0 0.0
2015-Feb-28 14:32N 22°29' E 113°55'1210.0
2015-Feb-28 13:23N 22°19' E 113°48'1517.7
2015-Feb-28 12:32N 22°10' E 113°35'7 2.7
2015-Feb-28 10:06N 22°15' E 113°39'6 9.7
2015-Feb-28 09:30N 22°12' E 113°34'2222.9
2015-Feb-28 08:33N 22°30' E 113°46'1612.0
2015-Feb-28 07:12N 22°15' E 113°39'6 8.0
2015-Feb-28 06:28N 22°12' E 113°34'2122.7
2015-Feb-28 05:33N 22°30' E 113°45'2211.2
2015-Feb-28 03:33N 22°10' E 113°35'1615.9
2015-Feb-28 02:33N 22°24' E 113°43'2 1.7
2015-Feb-28 01:07N 22°26' E 113°45'1424.8
2015-Feb-28 00:33N 22°12' E 113°40'2 0.2
2015-Feb-27 12:33N 22°11' E 113°38'4 2.0
2015-Feb-27 10:19N 22°15' E 113°39'6 7.1
2015-Feb-27 09:31N 22°11' E 113°36'2323.8
2015-Feb-27 08:33N 22°32' E 113°46'9 8.9
2015-Feb-27 07:31N 22°23' E 113°42'1412.5
2015-Feb-27 06:25N 22°12' E 113°34'1719.8
2015-Feb-27 05:32N 22°26' E 113°44'19 8.5
2015-Feb-27 03:21N 22°10' E 113°35'1620.6
2015-Feb-27 02:33N 22°24' E 113°43'13 6.5
2015-Feb-27 00:33N 22°12' E 113°39'4 0.3
2015-Feb-26 12:21N 22°10' E 113°35'2 0.6
2015-Feb-26 09:22N 22°12' E 113°34'1821.5
2015-Feb-26 08:33N 22°27' E 113°44'18 8.0
2015-Feb-26 06:20N 22°12' E 113°34'1620.7
2015-Feb-26 05:33N 22°25' E 113°43'17 7.8
2015-Feb-26 03:21N 22°10' E 113°35'1923.9
2015-Feb-26 02:33N 22°27' E 113°44'18 8.8
2015-Feb-26 00:27N 22°10' E 113°37'2 2.4
2015-Feb-25 23:29N 22°10' E 113°35'0 0.0
2015-Feb-25 22:33N 22°10' E 113°35'0 0.0
2015-Feb-25 21:15N 22°10' E 113°35'0 0.0
2015-Feb-25 20:33N 22°10' E 113°35'0 0.0
2015-Feb-25 19:25N 22°10' E 113°35'0 0.0
2015-Feb-25 15:04N 22°10' E 113°35'0 0.0
2015-Feb-25 14:05N 22°10' E 113°35'0 0.0
2015-Feb-25 13:10N 22°10' E 113°35'0 0.1
2015-Feb-25 12:28N 22°10' E 113°35'6 2.7
2015-Feb-25 10:04N 22°15' E 113°39'6 7.6
2015-Feb-25 09:18N 22°12' E 113°34'0 0.0
2015-Feb-25 06:18N 22°12' E 113°34'2 0.7
2015-Feb-25 03:19N 22°10' E 113°35'2 0.7
2015-Feb-25 00:26N 22°10' E 113°37'2 0.6
2015-Feb-24 21:15N 22°10' E 113°35'0 0.0
2015-Feb-24 20:14N 22°10' E 113°35'0 0.0
2015-Feb-24 19:30N 22°10' E 113°35'0 0.0
2015-Feb-24 14:31N 22°10' E 113°35'0 0.0
2015-Feb-24 13:32N 22°10' E 113°35'0 0.5
2015-Feb-24 12:33N 22°10' E 113°35'  

Dump ship's entire track history